createdAt,value
2019-06-27T00:00:19.921Z,91.10
2019-06-27T00:02:49.329Z,91.40
2019-06-27T00:05:19.137Z,91.80
2019-06-27T00:07:48.803Z,92.00
2019-06-27T00:10:18.696Z,92.20
2019-06-27T00:12:48.096Z,92.20
2019-06-27T00:15:17.513Z,92.40
2019-06-27T00:17:47.258Z,92.50
2019-06-27T00:20:17.182Z,92.40
2019-06-27T00:22:46.720Z,92.80
2019-06-27T00:25:16.491Z,92.80
2019-06-27T00:27:45.893Z,92.80
2019-06-27T00:30:15.509Z,92.80
2019-06-27T00:32:44.916Z,92.80
2019-06-27T00:35:14.609Z,93.10
2019-06-27T00:37:44.331Z,92.90
2019-06-27T00:40:14.450Z,93.40
2019-06-27T00:42:43.857Z,93.70
2019-06-27T00:45:13.437Z,93.50
2019-06-27T00:47:42.900Z,93.50
2019-06-27T00:50:12.408Z,93.40
2019-06-27T00:52:42.097Z,93.50
2019-06-27T00:55:11.529Z,93.70
2019-06-27T00:57:41.290Z,93.70
2019-06-27T01:00:10.877Z,93.70
2019-06-27T01:02:40.795Z,93.60
2019-06-27T01:05:10.208Z,93.50
2019-06-27T01:07:39.868Z,93.80
2019-06-27T01:10:09.546Z,94.20
2019-06-27T01:12:39.018Z,94.90
2019-06-27T01:15:08.605Z,95.90
2019-06-27T01:17:39.177Z,96.30
2019-06-27T01:20:09.449Z,96.70
2019-06-27T01:22:38.869Z,97.30
2019-06-27T01:25:09.287Z,97.20
2019-06-27T01:27:38.937Z,97.30
2019-06-27T01:30:09.105Z,97.10
2019-06-27T01:32:38.505Z,96.80
2019-06-27T01:35:08.333Z,96.70
2019-06-27T01:37:37.913Z,96.80
2019-06-27T01:40:07.660Z,96.80
2019-06-27T01:42:37.118Z,96.90
2019-06-27T01:45:21.946Z,97.00
2019-06-27T01:47:51.352Z,97.00
2019-06-27T01:50:20.728Z,96.90
2019-06-27T01:52:50.150Z,96.90
2019-06-27T01:55:19.849Z,96.70
2019-06-27T01:57:49.288Z,96.70
2019-06-27T02:00:19.062Z,96.70
2019-06-27T02:02:48.613Z,96.50
2019-06-27T02:05:18.025Z,96.50
2019-06-27T02:07:47.506Z,96.40
2019-06-27T02:10:17.577Z,96.40
2019-06-27T02:12:47.263Z,96.20
2019-06-27T02:15:16.960Z,95.80
2019-06-27T02:17:46.378Z,95.90
2019-06-27T02:20:16.373Z,95.80
2019-06-27T02:22:46.335Z,95.90
2019-06-27T02:25:16.912Z,95.80
2019-06-27T02:28:02.191Z,95.70
2019-06-27T02:30:22.906Z,95.70
2019-06-27T02:32:52.760Z,95.70
2019-06-27T02:35:22.499Z,95.70
2019-06-27T02:37:51.971Z,95.90
2019-06-27T02:40:21.794Z,96.30
2019-06-27T02:42:51.261Z,96.30
2019-06-27T02:45:21.158Z,96.40
2019-06-27T02:47:50.837Z,96.60
2019-06-27T02:50:20.259Z,96.60
2019-06-27T02:52:50.105Z,96.80
2019-06-27T02:55:19.769Z,96.80
2019-06-27T02:57:49.202Z,96.90
2019-06-27T03:00:19.721Z,96.80
2019-06-27T03:02:49.124Z,96.50
2019-06-27T03:05:18.549Z,96.80
2019-06-27T03:07:48.014Z,97.10
2019-06-27T03:10:17.926Z,96.80
2019-06-27T03:12:47.356Z,96.80
2019-06-27T03:15:18.370Z,97.00
2019-06-27T03:17:47.903Z,97.20
2019-06-27T03:20:17.752Z,97.40
2019-06-27T03:22:47.214Z,97.50
2019-06-27T03:25:16.677Z,97.60
2019-06-27T03:27:46.093Z,97.60
2019-06-27T03:30:15.579Z,97.40
2019-06-27T03:32:45.378Z,97.40
2019-06-27T03:35:14.798Z,97.50
2019-06-27T03:37:44.206Z,97.30
2019-06-27T03:40:13.973Z,97.30
2019-06-27T03:42:43.377Z,97.40
2019-06-27T03:45:15.677Z,97.10
2019-06-27T03:47:44.751Z,96.70
2019-06-27T03:50:16.052Z,96.50
2019-06-27T03:52:45.850Z,96.20
2019-06-27T03:55:15.264Z,96.20
2019-06-27T03:57:45.583Z,95.70
2019-06-27T04:00:20.579Z,95.30
2019-06-27T04:02:50.684Z,94.50
2019-06-27T04:05:20.381Z,94.00
2019-06-27T04:07:49.772Z,93.70
2019-06-27T04:10:19.722Z,93.30
2019-06-27T04:12:49.197Z,92.80
2019-06-27T04:15:18.573Z,91.90
2019-06-27T04:17:47.989Z,91.70
2019-06-27T04:20:17.470Z,90.90
2019-06-27T04:22:46.917Z,89.50
2019-06-27T04:25:16.311Z,88.40
2019-06-27T04:27:45.963Z,87.50
2019-06-27T04:30:15.665Z,85.60
2019-06-27T04:32:45.050Z,83.80
2019-06-27T04:35:14.951Z,81.50
2019-06-27T04:37:44.352Z,81.40
2019-06-27T04:40:14.224Z,80.90
2019-06-27T04:42:43.729Z,78.40
2019-06-27T04:45:13.616Z,79.20
2019-06-27T04:47:43.346Z,77.70
2019-06-27T04:50:13.301Z,75.60
2019-06-27T04:52:42.692Z,75.50
2019-06-27T04:55:12.370Z,74.10
2019-06-27T04:57:42.173Z,73.80
2019-06-27T05:00:13.121Z,74.10
2019-06-27T05:02:43.114Z,74.00
2019-06-27T05:05:12.836Z,73.10
2019-06-27T05:07:42.671Z,73.00
2019-06-27T05:10:12.083Z,72.90
2019-06-27T05:12:41.460Z,72.90
2019-06-27T05:15:11.068Z,71.60
2019-06-27T05:17:40.793Z,72.90
2019-06-27T05:20:10.662Z,71.00
2019-06-27T05:22:40.360Z,71.20
2019-06-27T05:25:09.702Z,71.00
2019-06-27T05:27:39.100Z,71.30
2019-06-27T05:30:10.413Z,69.80
2019-06-27T05:32:39.877Z,67.60
2019-06-27T05:35:10.103Z,66.70
2019-06-27T05:37:39.480Z,69.40
2019-06-27T05:40:10.005Z,69.50
2019-06-27T05:42:39.406Z,67.60
2019-06-27T05:45:09.221Z,66.30
2019-06-27T05:47:38.653Z,65.50
2019-06-27T05:50:08.550Z,66.20
2019-06-27T05:52:38.239Z,66.50
2019-06-27T05:55:07.663Z,66.30
2019-06-27T05:57:37.055Z,65.30
2019-06-27T06:00:06.749Z,65.70
2019-06-27T06:02:36.486Z,65.80
2019-06-27T06:05:05.970Z,65.00
2019-06-27T06:07:35.337Z,64.00
2019-06-27T06:10:05.096Z,60.90
2019-06-27T06:12:34.478Z,62.60
2019-06-27T06:15:03.936Z,61.90
2019-06-27T06:17:33.324Z,63.10
2019-06-27T06:20:03.137Z,59.60
2019-06-27T06:22:32.887Z,61.10
2019-06-27T06:25:02.363Z,58.30
2019-06-27T06:27:31.766Z,60.30
2019-06-27T06:30:01.243Z,61.10
2019-06-27T06:32:30.882Z,62.20
2019-06-27T06:35:00.353Z,62.00
2019-06-27T06:37:30.085Z,62.40
2019-06-27T06:39:59.909Z,62.00
2019-06-27T06:42:29.627Z,62.30
2019-06-27T06:44:59.284Z,58.80
2019-06-27T06:47:29.214Z,58.80
2019-06-27T06:49:59.365Z,59.50
2019-06-27T06:52:29.751Z,62.90
2019-06-27T06:54:59.507Z,63.40
2019-06-27T06:57:29.663Z,62.20
2019-06-27T06:59:59.295Z,60.90
2019-06-27T07:02:28.835Z,59.50
2019-06-27T07:04:58.396Z,59.80
2019-06-27T07:07:27.948Z,60.00
2019-06-27T07:09:57.323Z,61.00
2019-06-27T07:12:27.083Z,63.10
2019-06-27T07:14:56.858Z,63.50
2019-06-27T07:17:26.269Z,61.20
2019-06-27T07:19:57.556Z,62.10
2019-06-27T07:22:27.952Z,62.20
2019-06-27T07:24:57.751Z,61.70
2019-06-27T07:27:27.181Z,62.30
2019-06-27T07:29:56.852Z,62.50
2019-06-27T07:32:27.553Z,63.00
2019-06-27T07:34:56.948Z,63.30
2019-06-27T07:37:26.392Z,66.10
2019-06-27T07:39:56.625Z,64.80
2019-06-27T07:42:26.148Z,68.00
2019-06-27T07:44:55.542Z,66.90
2019-06-27T07:47:24.992Z,66.70
2019-06-27T07:49:54.390Z,66.10
2019-06-27T07:52:23.806Z,66.00
2019-06-27T07:54:53.964Z,65.60
2019-06-27T07:57:23.769Z,66.60
2019-06-27T07:59:53.321Z,65.50
2019-06-27T08:02:22.740Z,64.90
2019-06-27T08:04:52.502Z,64.70
2019-06-27T08:07:21.964Z,64.90
2019-06-27T08:09:51.493Z,64.80
2019-06-27T08:12:20.910Z,63.00
2019-06-27T08:14:50.708Z,63.60
2019-06-27T08:17:20.443Z,63.10
2019-06-27T08:19:49.824Z,62.10
2019-06-27T08:22:19.657Z,61.60
2019-06-27T08:24:49.069Z,59.70
2019-06-27T08:27:18.896Z,61.00
2019-06-27T08:29:48.306Z,59.40
2019-06-27T08:32:18.765Z,59.40
2019-06-27T08:34:48.289Z,59.50
2019-06-27T08:37:17.942Z,59.10
2019-06-27T08:39:47.337Z,58.10
2019-06-27T08:42:17.036Z,57.90
2019-06-27T08:44:46.707Z,58.10
2019-06-27T08:47:16.400Z,58.50
2019-06-27T08:49:46.270Z,59.60
2019-06-27T08:52:15.682Z,57.10
2019-06-27T08:54:45.191Z,57.20
2019-06-27T08:57:14.611Z,56.80
2019-06-27T08:59:44.159Z,55.80
2019-06-27T09:02:13.842Z,54.90
2019-06-27T09:04:43.597Z,55.10
2019-06-27T09:07:12.979Z,56.00
2019-06-27T09:09:42.744Z,57.20
2019-06-27T09:12:12.490Z,55.00
2019-06-27T09:14:42.241Z,56.80
2019-06-27T09:17:11.681Z,55.00
2019-06-27T09:19:41.098Z,53.30
2019-06-27T09:22:10.481Z,53.80
2019-06-27T09:24:40.342Z,51.90
2019-06-27T09:27:09.727Z,52.20
2019-06-27T09:29:39.197Z,53.60
2019-06-27T09:32:24.299Z,52.20
2019-06-27T09:34:40.240Z,49.90
2019-06-27T09:37:09.628Z,51.00
2019-06-27T09:39:39.318Z,51.50
2019-06-27T09:42:09.022Z,52.40
2019-06-27T09:44:41.969Z,50.70
2019-06-27T09:47:09.846Z,51.60
2019-06-27T09:49:39.262Z,49.60
2019-06-27T09:52:09.005Z,48.40
2019-06-27T09:54:38.422Z,48.90
2019-06-27T09:57:08.485Z,48.00
2019-06-27T09:59:38.538Z,47.80
2019-06-27T10:02:08.833Z,47.70
2019-06-27T10:04:38.833Z,45.40
2019-06-27T10:07:08.291Z,43.50
2019-06-27T10:09:37.766Z,42.00
2019-06-27T10:12:08.014Z,44.50
2019-06-27T10:14:37.454Z,43.20
2019-06-27T10:17:07.208Z,45.60
2019-06-27T10:19:36.635Z,47.80
2019-06-27T10:22:06.493Z,46.00
2019-06-27T10:24:35.982Z,45.30
2019-06-27T10:27:05.356Z,44.20
2019-06-27T10:29:34.777Z,43.60
2019-06-27T10:32:04.170Z,44.70
2019-06-27T10:34:34.019Z,42.60
2019-06-27T10:37:03.416Z,41.60
2019-06-27T10:39:33.126Z,43.90
2019-06-27T10:42:03.214Z,45.00
2019-06-27T10:44:33.507Z,41.60
2019-06-27T10:47:02.830Z,41.80
2019-06-27T10:49:32.995Z,41.20
2019-06-27T10:52:02.704Z,42.40
2019-06-27T10:54:32.803Z,39.60
2019-06-27T10:57:02.249Z,41.10
2019-06-27T10:59:31.960Z,39.40
2019-06-27T11:02:01.365Z,39.40
2019-06-27T11:04:31.170Z,37.00
2019-06-27T11:07:00.575Z,38.40
2019-06-27T11:09:29.971Z,36.80
2019-06-27T11:11:59.710Z,36.50
2019-06-27T11:14:29.492Z,37.10
2019-06-27T11:16:59.513Z,37.40
2019-06-27T11:19:29.743Z,36.40
2019-06-27T11:21:59.160Z,37.20
2019-06-27T11:24:29.042Z,37.00
2019-06-27T11:26:58.537Z,37.40
2019-06-27T11:29:27.984Z,36.50
2019-06-27T11:31:57.388Z,36.60
2019-06-27T11:34:27.072Z,36.80
2019-06-27T11:36:56.604Z,38.40
2019-06-27T11:39:26.381Z,37.30
2019-06-27T11:41:56.091Z,38.30
2019-06-27T11:44:25.496Z,37.50
2019-06-27T11:46:54.901Z,36.90
2019-06-27T11:49:24.755Z,36.60
2019-06-27T11:51:54.622Z,39.00
2019-06-27T11:54:24.803Z,39.30
2019-06-27T11:56:54.200Z,38.40
2019-06-27T11:59:23.609Z,36.70
2019-06-27T12:01:53.369Z,36.00
2019-06-27T12:04:22.756Z,36.70
2019-06-27T12:06:52.208Z,35.50
2019-06-27T12:09:21.889Z,34.10
2019-06-27T12:11:52.486Z,33.80
2019-06-27T12:14:23.044Z,34.10
2019-06-27T12:16:53.472Z,34.20
2019-06-27T12:19:24.078Z,35.00
2019-06-27T12:21:53.824Z,34.20
2019-06-27T12:24:23.225Z,31.70
2019-06-27T12:26:52.634Z,33.00
2019-06-27T12:29:22.326Z,32.20
2019-06-27T12:31:52.372Z,32.10
2019-06-27T12:34:22.116Z,30.90
2019-06-27T12:36:51.524Z,31.70
2019-06-27T12:39:21.181Z,30.20
2019-06-27T12:41:50.873Z,31.70
2019-06-27T12:44:20.533Z,32.20
2019-06-27T12:46:50.112Z,32.90
2019-06-27T12:49:19.500Z,34.00
2019-06-27T12:51:48.923Z,34.60
2019-06-27T12:54:18.313Z,34.50
2019-06-27T12:56:48.026Z,33.90
2019-06-27T12:59:17.433Z,34.30
2019-06-27T13:01:47.119Z,33.30
2019-06-27T13:04:23.343Z,36.00
2019-06-27T13:06:47.970Z,35.50
2019-06-27T13:09:17.911Z,37.20
2019-06-27T13:11:47.426Z,34.60
2019-06-27T13:14:16.833Z,34.60
2019-06-27T13:16:46.547Z,36.20
2019-06-27T13:19:15.937Z,36.00
2019-06-27T13:21:45.623Z,35.60
2019-06-27T13:24:15.112Z,35.10
2019-06-27T13:26:44.502Z,36.00
2019-06-27T13:29:13.915Z,35.80
2019-06-27T13:31:43.288Z,35.40
2019-06-27T13:34:12.701Z,35.80
2019-06-27T13:36:42.456Z,36.80
2019-06-27T13:39:11.857Z,37.30
2019-06-27T13:41:41.581Z,36.50
2019-06-27T13:44:11.128Z,37.00
2019-06-27T13:46:40.527Z,36.50
2019-06-27T13:49:10.428Z,36.50
2019-06-27T13:51:39.804Z,38.00
2019-06-27T13:54:09.571Z,38.40
2019-06-27T13:56:39.005Z,37.70
2019-06-27T13:59:08.462Z,37.80
2019-06-27T14:01:37.864Z,35.50
2019-06-27T14:04:07.284Z,35.10
2019-06-27T14:06:41.128Z,37.00
2019-06-27T14:09:21.954Z,36.80
2019-06-27T14:11:39.745Z,37.90
2019-06-27T14:14:11.449Z,37.80
2019-06-27T14:16:40.535Z,37.50
2019-06-27T14:19:09.941Z,38.20
2019-06-27T14:21:39.780Z,38.40
2019-06-27T14:24:09.209Z,38.30
2019-06-27T14:26:38.604Z,38.30
2019-06-27T14:29:08.020Z,37.10
2019-06-27T14:31:37.679Z,37.30
2019-06-27T14:34:07.446Z,36.80
2019-06-27T14:36:37.090Z,36.50
2019-06-27T14:39:07.889Z,37.40
2019-06-27T14:41:37.402Z,36.50
2019-06-27T14:44:06.877Z,37.40
2019-06-27T14:46:37.514Z,38.60
2019-06-27T14:49:07.348Z,37.90
2019-06-27T14:51:36.732Z,37.50
2019-06-27T14:54:06.220Z,35.40
2019-06-27T14:56:35.595Z,35.50
2019-06-27T14:59:05.372Z,36.80
2019-06-27T15:01:34.774Z,35.40
2019-06-27T15:04:04.258Z,34.70
2019-06-27T15:06:33.658Z,35.20
2019-06-27T15:09:03.168Z,32.90
2019-06-27T15:11:32.590Z,34.30
2019-06-27T15:14:01.999Z,33.70
2019-06-27T15:16:31.704Z,33.20
2019-06-27T15:19:01.124Z,34.50
2019-06-27T15:21:30.498Z,34.10
2019-06-27T15:23:59.903Z,33.20
2019-06-27T15:26:29.292Z,33.10
2019-06-27T15:28:58.727Z,34.60
2019-06-27T15:31:28.459Z,34.00
2019-06-27T15:33:57.888Z,34.70
2019-06-27T15:36:27.656Z,34.60
2019-06-27T15:38:57.061Z,32.90
2019-06-27T15:41:26.766Z,33.70
2019-06-27T15:43:56.175Z,33.00
2019-06-27T15:46:25.574Z,33.10
2019-06-27T15:48:54.999Z,33.00
2019-06-27T15:51:24.378Z,31.30
2019-06-27T15:53:54.136Z,31.40
2019-06-27T15:56:24.236Z,31.00
2019-06-27T15:58:53.659Z,30.10
2019-06-27T16:01:23.050Z,29.20
2019-06-27T16:03:52.725Z,29.00
2019-06-27T16:06:22.111Z,29.50
2019-06-27T16:08:51.513Z,29.10
2019-06-27T16:11:21.245Z,27.70
2019-06-27T16:13:50.642Z,28.00
2019-06-27T16:16:20.076Z,28.10
2019-06-27T16:18:49.480Z,28.00
2019-06-27T16:21:19.156Z,26.50
2019-06-27T16:23:48.825Z,26.60
2019-06-27T16:26:18.491Z,26.50
2019-06-27T16:28:47.863Z,27.10
2019-06-27T16:31:17.265Z,25.50
2019-06-27T16:33:46.762Z,26.40
2019-06-27T16:36:25.667Z,25.90
2019-06-27T16:38:47.374Z,25.40
2019-06-27T16:41:17.043Z,25.40
2019-06-27T16:43:46.685Z,24.30
2019-06-27T16:46:16.101Z,24.30
2019-06-27T16:48:45.514Z,24.50
2019-06-27T16:51:15.300Z,24.80
2019-06-27T16:53:44.675Z,24.40
2019-06-27T16:56:14.723Z,23.80
2019-06-27T16:58:44.129Z,23.70
2019-06-27T17:01:13.682Z,22.70
2019-06-27T17:03:47.417Z,23.00
2019-06-27T17:06:16.816Z,22.70
2019-06-27T17:08:46.220Z,21.80
2019-06-27T17:11:16.036Z,21.70
2019-06-27T17:13:45.419Z,21.60
2019-06-27T17:16:14.905Z,21.50
2019-06-27T17:18:44.639Z,21.60
2019-06-27T17:21:14.043Z,21.50
2019-06-27T17:23:43.509Z,21.60
2019-06-27T17:26:12.928Z,20.10
2019-06-27T17:28:42.686Z,20.70
2019-06-27T17:31:12.495Z,21.30
2019-06-27T17:33:42.205Z,21.40
2019-06-27T17:36:11.680Z,21.30
2019-06-27T17:38:41.066Z,19.90
2019-06-27T17:41:10.569Z,20.20
2019-06-27T17:43:41.523Z,19.10
2019-06-27T17:46:11.804Z,19.50
2019-06-27T17:48:41.560Z,19.10
2019-06-27T17:51:11.348Z,19.20
2019-06-27T17:53:40.826Z,20.10
2019-06-27T17:56:10.260Z,19.90
2019-06-27T17:58:40.433Z,20.10
2019-06-27T18:01:10.109Z,20.90
2019-06-27T18:03:39.770Z,21.00
2019-06-27T18:06:09.179Z,20.90
2019-06-27T18:08:38.581Z,20.90
2019-06-27T18:11:08.023Z,20.70
2019-06-27T18:13:37.398Z,20.90
2019-06-27T18:16:06.817Z,21.00
2019-06-27T18:18:36.188Z,20.30
2019-06-27T18:21:05.610Z,19.10
2019-06-27T18:23:35.385Z,19.70
2019-06-27T18:26:04.970Z,20.20
2019-06-27T18:28:34.354Z,20.10
2019-06-27T18:31:03.906Z,20.10
2019-06-27T18:33:33.979Z,19.90
2019-06-27T18:36:03.728Z,20.70
2019-06-27T18:38:33.852Z,20.30
2019-06-27T18:41:03.525Z,20.00
2019-06-27T18:43:32.908Z,20.00
2019-06-27T18:46:02.365Z,20.20
2019-06-27T18:48:31.873Z,20.30
2019-06-27T18:51:01.289Z,20.60
2019-06-27T18:53:30.736Z,20.60
2019-06-27T18:56:00.573Z,21.00
2019-06-27T18:58:29.983Z,21.50
2019-06-27T19:00:59.721Z,22.10
2019-06-27T19:03:29.154Z,22.80
2019-06-27T19:05:58.822Z,22.70
2019-06-27T19:08:28.429Z,22.60
2019-06-27T19:10:58.150Z,22.60
2019-06-27T19:13:27.565Z,23.00
2019-06-27T19:15:57.221Z,22.50
2019-06-27T19:18:45.957Z,22.50
2019-06-27T19:21:23.754Z,22.50
2019-06-27T19:24:01.777Z,22.90
2019-06-27T19:26:31.198Z,22.50
2019-06-27T19:29:01.166Z,22.80
2019-06-27T19:31:30.597Z,22.90
2019-06-27T19:33:59.993Z,23.10
2019-06-27T19:36:30.063Z,23.10
2019-06-27T19:38:59.880Z,23.50
2019-06-27T19:41:29.273Z,23.80
2019-06-27T19:43:58.871Z,24.00
2019-06-27T19:46:28.322Z,24.40
2019-06-27T19:48:58.053Z,24.40
2019-06-27T19:51:27.715Z,24.60
2019-06-27T19:53:58.086Z,24.70
2019-06-27T19:56:27.951Z,24.40
2019-06-27T19:58:57.502Z,24.70
2019-06-27T20:01:26.908Z,24.20
2019-06-27T20:03:56.684Z,24.20
2019-06-27T20:06:26.087Z,22.10
2019-06-27T20:08:55.857Z,21.70
2019-06-27T20:11:25.949Z,21.70
2019-06-27T20:13:55.722Z,22.30
2019-06-27T20:16:25.092Z,21.80
2019-06-27T20:18:54.534Z,21.60
2019-06-27T20:21:23.917Z,21.50
2019-06-27T20:23:53.408Z,21.40
2019-06-27T20:26:23.460Z,21.40
2019-06-27T20:28:52.892Z,21.40
2019-06-27T20:31:22.409Z,21.30
2019-06-27T20:33:51.838Z,20.60
2019-06-27T20:36:21.689Z,21.00
2019-06-27T20:38:51.130Z,21.30
2019-06-27T20:41:20.529Z,21.10
2019-06-27T20:43:50.212Z,21.00
2019-06-27T20:46:19.613Z,21.40
2019-06-27T20:48:49.034Z,20.90
2019-06-27T20:51:18.721Z,20.50
2019-06-27T20:53:48.120Z,20.90
2019-06-27T20:56:17.798Z,20.90
2019-06-27T20:58:47.234Z,20.90
2019-06-27T21:01:16.989Z,20.90
2019-06-27T21:03:46.496Z,21.10
2019-06-27T21:06:16.204Z,20.80
2019-06-27T21:08:51.161Z,20.80
2019-06-27T21:11:17.060Z,20.70
2019-06-27T21:13:46.729Z,21.70
2019-06-27T21:16:16.498Z,20.70
2019-06-27T21:18:45.941Z,21.20
2019-06-27T21:21:15.343Z,22.00
2019-06-27T21:23:45.063Z,21.80
2019-06-27T21:26:15.194Z,21.70
2019-06-27T21:28:44.589Z,21.60
2019-06-27T21:31:14.007Z,22.10
2019-06-27T21:33:43.668Z,21.50
2019-06-27T21:36:13.085Z,21.50
2019-06-27T21:38:42.586Z,21.50
2019-06-27T21:41:12.699Z,22.80
2019-06-27T21:43:42.451Z,23.30
2019-06-27T21:46:12.533Z,23.70
2019-06-27T21:48:41.939Z,23.70
2019-06-27T21:51:11.668Z,23.70
2019-06-27T21:53:41.097Z,23.10
2019-06-27T21:56:10.514Z,22.90
2019-06-27T21:58:40.266Z,23.60
2019-06-27T22:01:09.780Z,23.60
2019-06-27T22:03:39.908Z,24.30
2019-06-27T22:06:09.682Z,24.30
2019-06-27T22:08:39.345Z,23.50
2019-06-27T22:11:08.765Z,26.10
2019-06-27T22:13:38.558Z,25.60
2019-06-27T22:16:08.112Z,25.80
2019-06-27T22:18:38.269Z,25.00
2019-06-27T22:21:07.702Z,26.10
2019-06-27T22:23:37.802Z,25.90
2019-06-27T22:26:07.289Z,26.80
2019-06-27T22:28:37.031Z,26.70
2019-06-27T22:31:06.454Z,26.70
2019-06-27T22:33:35.854Z,25.80
2019-06-27T22:36:05.400Z,27.60
2019-06-27T22:38:52.705Z,28.60
2019-06-27T22:41:39.774Z,27.30
2019-06-27T22:44:27.202Z,25.80
2019-06-27T22:47:14.762Z,27.20
2019-06-27T22:49:43.964Z,27.70
2019-06-27T22:52:38.718Z,28.90
2019-06-27T22:55:09.700Z,28.70
2019-06-27T22:57:39.094Z,29.30
2019-06-27T23:00:09.005Z,29.70
2019-06-27T23:02:38.409Z,29.00
2019-06-27T23:05:08.505Z,29.10
2019-06-27T23:07:37.992Z,27.90
2019-06-27T23:10:07.614Z,29.10
2019-06-27T23:12:37.030Z,29.70
2019-06-27T23:15:08.060Z,30.10
2019-06-27T23:17:37.971Z,29.80
2019-06-27T23:20:07.974Z,28.40
2019-06-27T23:22:37.379Z,29.20
2019-06-27T23:25:06.765Z,28.40
2019-06-27T23:27:36.478Z,29.70
2019-06-27T23:30:06.949Z,30.80
2019-06-27T23:32:37.261Z,30.40
2019-06-27T23:35:06.836Z,31.10
2019-06-27T23:37:36.520Z,31.40
2019-06-27T23:40:13.885Z,30.80
2019-06-27T23:42:37.209Z,31.10
2019-06-27T23:45:07.374Z,30.00
2019-06-27T23:47:36.994Z,29.30
2019-06-27T23:50:06.688Z,29.60
2019-06-27T23:52:36.382Z,29.60
2019-06-27T23:55:06.310Z,30.40
2019-06-27T23:57:35.716Z,30.50
